createdAt,value
2019-01-16T00:03:10.950Z,100802.38
2019-01-16T00:05:43.528Z,100790.63
2019-01-16T00:08:13.580Z,100796.39
2019-01-16T00:10:52.406Z,100785.04
2019-01-16T00:13:22.498Z,100789.55
2019-01-16T00:15:58.660Z,100778.17
2019-01-16T00:18:40.432Z,100772.52
2019-01-16T00:21:16.441Z,100775.27
2019-01-16T00:23:48.958Z,100780.27
2019-01-16T00:26:21.686Z,100778.02
2019-01-16T00:28:54.536Z,100773.11
2019-01-16T00:31:24.614Z,100779.11
2019-01-16T00:33:57.353Z,100778.83
2019-01-16T00:36:27.402Z,100777.14
2019-01-16T00:39:09.418Z,100778.11
2019-01-16T00:41:48.507Z,100773.52
2019-01-16T00:44:21.018Z,100768.13
2019-01-16T00:46:56.548Z,100770.28
2019-01-16T00:49:26.605Z,100775.55
2019-01-16T00:51:59.816Z,100773.88
2019-01-16T00:54:29.868Z,100773.88
2019-01-16T00:57:14.951Z,100772.91
2019-01-16T00:59:45.006Z,100768.61
2019-01-16T01:02:27.106Z,100779.86
2019-01-16T01:04:57.192Z,100771.14
2019-01-16T01:07:39.663Z,100764.73
2019-01-16T01:10:17.531Z,100761.43
2019-01-16T01:12:59.856Z,100763.17
2019-01-16T01:15:41.762Z,100767.70
2019-01-16T01:18:23.783Z,100769.76
2019-01-16T01:20:59.910Z,100767.12
2019-01-16T01:23:41.713Z,100767.63
2019-01-16T01:26:11.755Z,100759.58
2019-01-16T01:28:41.800Z,100762.97
2019-01-16T01:31:11.881Z,100764.17
2019-01-16T01:34:00.301Z,100764.66
2019-01-16T01:36:48.541Z,100760.13
2019-01-16T01:39:34.566Z,100768.50
2019-01-16T01:42:13.768Z,100763.48
2019-01-16T01:44:43.846Z,100762.59
2019-01-16T01:47:16.641Z,100762.30
2019-01-16T01:49:55.679Z,100756.19
2019-01-16T01:52:41.735Z,100756.26
2019-01-16T01:55:14.618Z,100754.27
2019-01-16T01:57:44.745Z,100757.11
2019-01-16T02:00:31.270Z,100754.12
2019-01-16T02:03:17.690Z,100744.80
2019-01-16T02:05:50.459Z,100750.42
2019-01-16T02:08:38.348Z,100745.64
2019-01-16T02:11:08.530Z,100743.13
2019-01-16T02:13:44.476Z,100745.53
2019-01-16T02:16:30.732Z,100747.75
2019-01-16T02:19:16.652Z,100750.27
2019-01-16T02:21:52.766Z,100736.91
2019-01-16T02:24:25.655Z,100736.54
2019-01-16T02:26:55.688Z,100739.63
2019-01-16T02:29:42.376Z,100737.58
2019-01-16T02:32:15.098Z,100724.42
2019-01-16T02:34:51.362Z,100731.95
2019-01-16T02:37:33.814Z,100730.78
2019-01-16T02:40:03.848Z,100718.11
2019-01-16T02:42:33.907Z,100714.83
2019-01-16T02:45:19.923Z,100715.52
2019-01-16T02:47:49.974Z,100714.45
2019-01-16T02:50:28.802Z,100715.35
2019-01-16T02:53:13.966Z,100713.45
2019-01-16T02:55:46.628Z,100703.88
2019-01-16T02:58:25.568Z,100704.09
2019-01-16T03:01:13.779Z,100705.52
2019-01-16T03:03:46.664Z,100701.36
2019-01-16T03:06:33.072Z,100689.28
2019-01-16T03:09:05.567Z,100694.34
2019-01-16T03:11:41.367Z,100688.97
2019-01-16T03:14:11.509Z,100690.19
2019-01-16T03:16:59.703Z,100690.44
2019-01-16T03:19:35.241Z,100683.23
2019-01-16T03:22:05.464Z,100680.61
2019-01-16T03:24:38.318Z,100678.28
2019-01-16T03:27:20.258Z,100674.86
2019-01-16T03:29:50.338Z,100672.03
2019-01-16T03:32:32.135Z,100674.50
2019-01-16T03:35:02.216Z,100669.12
2019-01-16T03:37:37.976Z,100662.18
2019-01-16T03:40:25.951Z,100665.18
2019-01-16T03:43:01.907Z,100656.33
2019-01-16T03:45:34.920Z,100660.64
2019-01-16T03:48:21.177Z,100647.43
2019-01-16T03:50:51.214Z,100655.87
2019-01-16T03:53:27.039Z,100659.53
2019-01-16T03:55:57.100Z,100652.02
2019-01-16T03:58:27.133Z,100658.00
2019-01-16T04:00:57.266Z,100655.45
2019-01-16T04:03:27.406Z,100654.28
2019-01-16T04:05:57.561Z,100651.64
2019-01-16T04:08:30.267Z,100649.38
2019-01-16T04:11:08.917Z,100641.84
2019-01-16T04:13:39.016Z,100645.53
2019-01-16T04:16:14.866Z,100647.75
2019-01-16T04:18:50.776Z,100641.01
2019-01-16T04:21:23.667Z,100640.53
2019-01-16T04:23:56.554Z,100631.53
2019-01-16T04:26:42.628Z,100615.67
2019-01-16T04:29:28.928Z,100624.68
2019-01-16T04:32:01.632Z,100626.64
2019-01-16T04:34:31.699Z,100623.16
2019-01-16T04:37:01.771Z,100611.20
2019-01-16T04:39:46.713Z,100613.10
2019-01-16T04:42:35.224Z,100613.91
2019-01-16T04:45:06.320Z,100613.58
2019-01-16T04:47:54.648Z,100609.16
2019-01-16T04:50:41.139Z,100609.44
2019-01-16T04:53:14.034Z,100592.84
2019-01-16T04:55:47.111Z,100598.62
2019-01-16T04:58:17.154Z,100594.31
2019-01-16T05:00:49.999Z,100590.73
2019-01-16T05:03:20.048Z,100584.52
2019-01-16T05:05:52.704Z,100579.69
2019-01-16T05:08:38.133Z,100571.72
2019-01-16T05:11:10.677Z,100573.84
2019-01-16T05:13:56.990Z,100570.92
2019-01-16T05:16:39.019Z,100577.67
2019-01-16T05:19:24.122Z,100573.14
2019-01-16T05:22:10.359Z,100568.72
2019-01-16T05:24:55.550Z,100568.36
2019-01-16T05:27:42.099Z,100566.16
2019-01-16T05:30:13.515Z,100567.88
2019-01-16T05:32:46.517Z,100555.78
2019-01-16T05:35:16.656Z,100557.76
2019-01-16T05:37:49.402Z,100560.42
2019-01-16T05:40:19.436Z,100558.97
2019-01-16T05:42:49.496Z,100553.73
2019-01-16T05:45:22.556Z,100554.55
2019-01-16T05:48:04.810Z,100547.97
2019-01-16T05:50:37.347Z,100549.02
2019-01-16T05:53:16.326Z,100540.51
2019-01-16T05:56:02.592Z,100539.55
2019-01-16T05:58:32.679Z,100546.13
2019-01-16T06:01:08.732Z,100540.21
2019-01-16T06:03:41.678Z,100537.07
2019-01-16T06:06:17.705Z,100535.93
2019-01-16T06:08:56.519Z,100534.25
2019-01-16T06:11:29.112Z,100533.73
2019-01-16T06:13:59.181Z,100533.30
2019-01-16T06:16:29.226Z,100523.36
2019-01-16T06:18:59.317Z,100529.45
2019-01-16T06:21:29.419Z,100531.41
2019-01-16T06:24:15.543Z,100525.98
2019-01-16T06:26:45.577Z,100519.34
2019-01-16T06:29:30.721Z,100517.81
2019-01-16T06:32:16.026Z,100510.39
2019-01-16T06:34:46.094Z,100514.27
2019-01-16T06:37:28.208Z,100513.69
2019-01-16T06:40:07.461Z,100508.60
2019-01-16T06:42:37.624Z,100512.14
2019-01-16T06:45:26.958Z,100509.05
2019-01-16T06:48:08.718Z,100502.80
2019-01-16T06:50:56.772Z,100503.62
2019-01-16T06:53:26.929Z,100496.84
2019-01-16T06:56:08.996Z,100500.56
2019-01-16T06:58:39.079Z,100497.45
2019-01-16T07:01:15.095Z,100497.53
2019-01-16T07:04:00.049Z,100500.16
2019-01-16T07:06:33.109Z,100503.99
2019-01-16T07:09:19.426Z,100507.47
2019-01-16T07:11:58.160Z,100507.47
2019-01-16T07:14:34.429Z,100504.73
2019-01-16T07:17:04.540Z,100495.41
2019-01-16T07:19:43.725Z,100489.31
2019-01-16T07:22:13.799Z,100486.67
2019-01-16T07:24:49.847Z,100488.61
2019-01-16T07:27:31.537Z,100494.13
2019-01-16T07:30:13.420Z,100490.91
2019-01-16T07:32:58.572Z,100490.88
2019-01-16T07:35:31.111Z,100492.16
2019-01-16T07:38:17.800Z,100488.02
2019-01-16T07:41:02.928Z,100479.84
2019-01-16T07:43:51.944Z,100484.37
2019-01-16T07:46:22.030Z,100484.41
2019-01-16T07:48:52.102Z,100480.49
2019-01-16T07:51:22.144Z,100477.11
2019-01-16T07:54:01.115Z,100484.52
2019-01-16T07:56:37.242Z,100475.45
2019-01-16T07:59:10.528Z,100480.83
2019-01-16T08:01:52.743Z,100484.91
2019-01-16T08:04:31.859Z,100484.16
2019-01-16T08:07:05.061Z,100485.95
2019-01-16T08:09:35.110Z,100487.41
2019-01-16T08:12:07.893Z,100483.83
2019-01-16T08:14:47.249Z,100480.23
2019-01-16T08:17:33.659Z,100479.28
2019-01-16T08:20:15.472Z,100486.56
2019-01-16T08:23:01.904Z,100481.42
2019-01-16T08:25:34.710Z,100484.55
2019-01-16T08:28:04.756Z,100488.50
2019-01-16T08:30:51.294Z,100484.41
2019-01-16T08:33:23.914Z,100488.69
2019-01-16T08:35:53.951Z,100495.02
2019-01-16T08:38:24.105Z,100485.14
2019-01-16T08:40:56.876Z,100482.78
2019-01-16T08:43:27.002Z,100481.08
2019-01-16T08:46:05.884Z,100475.34
2019-01-16T08:48:36.022Z,100465.27
2019-01-16T08:51:23.096Z,100467.81
2019-01-16T08:53:59.005Z,100461.44
2019-01-16T08:56:31.794Z,100453.81
2019-01-16T08:59:07.591Z,100450.56
2019-01-16T09:01:37.707Z,100444.70
2019-01-16T09:04:26.541Z,100439.55
2019-01-16T09:06:59.434Z,100438.59
2019-01-16T09:09:44.482Z,100437.41
2019-01-16T09:12:17.422Z,100440.27
2019-01-16T09:15:04.170Z,100435.39
2019-01-16T09:17:52.423Z,100437.50
2019-01-16T09:20:22.483Z,100441.67
2019-01-16T09:22:58.709Z,100445.98
2019-01-16T09:25:34.970Z,100441.59
2019-01-16T09:28:14.288Z,100447.27
2019-01-16T09:30:44.369Z,100442.14
2019-01-16T09:33:23.499Z,100430.56
2019-01-16T09:35:53.570Z,100430.34
2019-01-16T09:38:29.147Z,100429.50
2019-01-16T09:41:14.481Z,100427.16
2019-01-16T09:43:50.553Z,100430.70
2019-01-16T09:46:35.659Z,100430.12
2019-01-16T09:49:05.910Z,100432.27
2019-01-16T09:51:54.023Z,100422.17
2019-01-16T09:54:30.228Z,100406.09
2019-01-16T09:57:16.725Z,100400.45
2019-01-16T09:59:50.432Z,100394.47
2019-01-16T10:02:36.635Z,100394.35
2019-01-16T10:05:11.534Z,100397.23
2019-01-16T10:07:41.577Z,100403.67
2019-01-16T10:10:25.516Z,100399.63
2019-01-16T10:13:10.716Z,100401.44
2019-01-16T10:15:57.231Z,100411.39
2019-01-16T10:18:27.301Z,100398.78
2019-01-16T10:20:57.402Z,100400.86
2019-01-16T10:23:45.499Z,100391.39
2019-01-16T10:26:31.941Z,100393.69
2019-01-16T10:29:04.800Z,100378.95
2019-01-16T10:31:52.994Z,100374.53
2019-01-16T10:34:29.101Z,100376.08
2019-01-16T10:36:59.161Z,100368.03
2019-01-16T10:39:47.191Z,100356.92
2019-01-16T10:42:26.117Z,100355.83
2019-01-16T10:44:59.200Z,100343.04
2019-01-16T10:47:41.043Z,100345.80
2019-01-16T10:50:19.826Z,100345.97
2019-01-16T10:52:49.919Z,100342.42
2019-01-16T10:55:19.966Z,100338.06
2019-01-16T10:57:55.968Z,100327.47
2019-01-16T11:00:31.881Z,100325.55
2019-01-16T11:03:10.990Z,100318.81
2019-01-16T11:05:47.200Z,100304.22
2019-01-16T11:08:17.243Z,100302.20
2019-01-16T11:10:59.363Z,100295.53
2019-01-16T11:13:35.382Z,100293.45
2019-01-16T11:16:20.780Z,100282.59
2019-01-16T11:18:56.705Z,100280.87
2019-01-16T11:21:42.868Z,100283.80
2019-01-16T11:24:15.766Z,100289.19
2019-01-16T11:27:02.312Z,100289.94
2019-01-16T11:29:35.041Z,100279.20
2019-01-16T11:32:17.028Z,100271.27
2019-01-16T11:34:49.804Z,100276.33
2019-01-16T11:37:20.059Z,100271.11
2019-01-16T11:39:53.076Z,100258.96
2019-01-16T11:42:23.139Z,100241.92
2019-01-16T11:45:02.281Z,100244.56
2019-01-16T11:47:38.246Z,100246.13
2019-01-16T11:50:21.268Z,100229.80
2019-01-16T11:52:57.268Z,100223.05
2019-01-16T11:55:44.089Z,100216.28
2019-01-16T11:58:23.000Z,100208.43
2019-01-16T12:00:53.226Z,100207.46
2019-01-16T12:03:23.294Z,100217.21
2019-01-16T12:05:53.332Z,100209.06
2019-01-16T12:08:23.705Z,100201.84
2019-01-16T12:11:08.622Z,100194.98
2019-01-16T12:13:41.499Z,100190.29
2019-01-16T12:16:28.217Z,100178.93
2019-01-16T12:18:58.271Z,100176.73
2019-01-16T12:21:40.667Z,100181.19
2019-01-16T12:24:17.053Z,100170.98
2019-01-16T12:27:03.347Z,100161.02
2019-01-16T12:29:36.312Z,100149.05
2019-01-16T12:32:06.548Z,100136.80
2019-01-16T12:34:39.307Z,100130.98
2019-01-16T12:37:15.066Z,100132.30
2019-01-16T12:39:45.128Z,100124.13
2019-01-16T12:42:17.990Z,100125.55
2019-01-16T12:45:00.514Z,100126.45
2019-01-16T12:47:30.664Z,100118.02
2019-01-16T12:50:03.154Z,100112.63
2019-01-16T12:52:36.021Z,100108.17
2019-01-16T12:55:25.930Z,100100.50
2019-01-16T12:58:13.342Z,100096.70
2019-01-16T13:00:51.405Z,100093.46
2019-01-16T13:03:21.624Z,100082.39
2019-01-16T13:06:00.710Z,100085.00
2019-01-16T13:08:42.546Z,100089.73
2019-01-16T13:11:15.549Z,100082.85
2019-01-16T13:13:51.214Z,100076.64
2019-01-16T13:16:21.348Z,100075.75
2019-01-16T13:19:03.335Z,100068.67
2019-01-16T13:21:39.936Z,100069.21
2019-01-16T13:24:17.425Z,100062.95
2019-01-16T13:26:53.011Z,100056.37
2019-01-16T13:29:23.068Z,100047.26
2019-01-16T13:31:53.281Z,100039.62
2019-01-16T13:34:26.334Z,100054.30
2019-01-16T13:36:56.386Z,100040.25
2019-01-16T13:39:26.533Z,100036.12
2019-01-16T13:41:56.606Z,100042.48
2019-01-16T13:44:32.664Z,100035.38
2019-01-16T13:47:11.712Z,100032.20
2019-01-16T13:49:50.775Z,100030.88
2019-01-16T13:52:26.821Z,100018.80
2019-01-16T13:55:03.094Z,100016.39
2019-01-16T13:57:33.184Z,100020.76
2019-01-16T14:00:19.684Z,100022.59
2019-01-16T14:03:05.962Z,100018.98
2019-01-16T14:05:38.901Z,100018.09
2019-01-16T14:08:09.037Z,100014.94
2019-01-16T14:10:45.201Z,100016.87
2019-01-16T14:13:15.278Z,100020.47
2019-01-16T14:15:48.076Z,100018.83
2019-01-16T14:18:18.472Z,100010.95
2019-01-16T14:20:57.637Z,100005.94
2019-01-16T14:23:27.724Z,100004.95
2019-01-16T14:26:10.339Z,99999.39
2019-01-16T14:28:43.274Z,100000.95
2019-01-16T14:31:30.083Z,99994.41
2019-01-16T14:34:16.382Z,99990.36
2019-01-16T14:37:02.692Z,99990.87
2019-01-16T14:39:50.976Z,99988.00
2019-01-16T14:42:24.100Z,99974.06
2019-01-16T14:45:06.374Z,99980.83
2019-01-16T14:47:36.678Z,99972.30
2019-01-16T14:50:10.188Z,99972.89
2019-01-16T14:52:49.087Z,99973.09
2019-01-16T14:55:33.912Z,99962.31
2019-01-16T14:58:19.062Z,99960.02
2019-01-16T15:01:00.963Z,99960.48
2019-01-16T15:03:43.194Z,99958.97
2019-01-16T15:06:13.331Z,99947.02
2019-01-16T15:09:00.105Z,99942.63
2019-01-16T15:11:38.851Z,99936.33
2019-01-16T15:14:11.801Z,99937.30
2019-01-16T15:16:44.573Z,99932.64
2019-01-16T15:19:20.414Z,99940.88
2019-01-16T15:22:02.849Z,99929.37
2019-01-16T15:24:31.682Z,99924.56
2019-01-16T15:27:01.858Z,99921.78
2019-01-16T15:29:40.831Z,99917.48
2019-01-16T15:32:29.330Z,99915.36
2019-01-16T15:35:15.865Z,99909.90
2019-01-16T15:37:46.299Z,99906.38
2019-01-16T15:40:28.758Z,99899.00
2019-01-16T15:42:58.943Z,99899.54
2019-01-16T15:45:45.199Z,99895.73
2019-01-16T15:48:31.695Z,99902.36
2019-01-16T15:51:18.017Z,99899.55
2019-01-16T15:53:51.131Z,99889.33
2019-01-16T15:56:27.396Z,99884.77
2019-01-16T15:59:15.593Z,99882.05
2019-01-16T16:01:45.910Z,99884.96
2019-01-16T16:04:24.580Z,99878.83
2019-01-16T16:07:03.955Z,99878.55
2019-01-16T16:09:45.767Z,99874.40
2019-01-16T16:12:34.406Z,99864.72
2019-01-16T16:15:07.126Z,99869.22
2019-01-16T16:17:53.440Z,99859.80
2019-01-16T16:20:23.490Z,99861.83
2019-01-16T16:22:59.898Z,99855.80
2019-01-16T16:25:38.954Z,99854.23
2019-01-16T16:28:11.756Z,99851.91
2019-01-16T16:30:41.804Z,99853.48
2019-01-16T16:33:14.552Z,99847.86
2019-01-16T16:36:00.943Z,99840.37
2019-01-16T16:38:40.120Z,99834.64
2019-01-16T16:41:12.968Z,99830.11
2019-01-16T16:43:59.190Z,99827.61
2019-01-16T16:46:31.663Z,99830.25
2019-01-16T16:49:04.697Z,99824.85
2019-01-16T16:51:51.004Z,99827.25
2019-01-16T16:54:24.096Z,99824.57
2019-01-16T16:57:06.247Z,99814.95
2019-01-16T16:59:42.308Z,99809.40
2019-01-16T17:02:15.491Z,99807.41
2019-01-16T17:04:45.522Z,99808.02
2019-01-16T17:07:24.220Z,99805.61
2019-01-16T17:09:54.326Z,99802.87
2019-01-16T17:12:30.247Z,99797.92
2019-01-16T17:15:09.470Z,99797.06
2019-01-16T17:17:45.076Z,99792.97
2019-01-16T17:20:21.472Z,99798.13
2019-01-16T17:22:51.526Z,99790.48
2019-01-16T17:25:24.336Z,99790.69
2019-01-16T17:28:10.531Z,99795.81
2019-01-16T17:30:55.922Z,99794.64
2019-01-16T17:33:42.172Z,99796.79
2019-01-16T17:36:28.609Z,99796.06
2019-01-16T17:39:17.229Z,99802.33
2019-01-16T17:41:56.502Z,99791.08
2019-01-16T17:44:32.494Z,99799.45
2019-01-16T17:47:08.378Z,99797.63
2019-01-16T17:49:50.346Z,99793.27
2019-01-16T17:52:38.916Z,99792.84
2019-01-16T17:55:18.419Z,99785.30
2019-01-16T17:57:48.514Z,99778.39
2019-01-16T18:00:24.916Z,99778.39
2019-01-16T18:02:57.786Z,99771.03
2019-01-16T18:05:44.401Z,99770.25
2019-01-16T18:08:30.900Z,99770.15
2019-01-16T18:11:10.135Z,99763.36
2019-01-16T18:13:40.385Z,99761.55
2019-01-16T18:16:28.971Z,99763.56
2019-01-16T18:19:15.590Z,99757.07
2019-01-16T18:21:48.657Z,99754.09
2019-01-16T18:24:35.313Z,99752.66
2019-01-16T18:27:20.595Z,99735.28
2019-01-16T18:29:50.808Z,99739.77
2019-01-16T18:32:36.519Z,99740.53
2019-01-16T18:35:16.973Z,99736.91
2019-01-16T18:37:47.304Z,99733.48
2019-01-16T18:40:32.933Z,99733.00
2019-01-16T18:43:03.306Z,99724.66
2019-01-16T18:45:33.689Z,99736.34
2019-01-16T18:48:15.852Z,99736.34
2019-01-16T18:51:02.279Z,99727.81
2019-01-16T18:53:49.087Z,99718.14
2019-01-16T18:56:21.773Z,99715.45
2019-01-16T18:59:01.155Z,99724.34
2019-01-16T19:01:49.225Z,99729.89
2019-01-16T19:04:19.570Z,99728.95
2019-01-16T19:07:07.874Z,99720.29
2019-01-16T19:09:38.199Z,99715.89
2019-01-16T19:12:17.842Z,99727.75
2019-01-16T19:15:06.058Z,99728.59
2019-01-16T19:17:36.327Z,99713.90
2019-01-16T19:20:21.204Z,99721.91
2019-01-16T19:23:06.736Z,99720.47
2019-01-16T19:25:40.042Z,99716.27
2019-01-16T19:28:10.326Z,99722.47
2019-01-16T19:30:56.362Z,99723.59
2019-01-16T19:33:26.768Z,99726.60
2019-01-16T19:36:13.734Z,99717.30
2019-01-16T19:39:00.399Z,99717.05
2019-01-16T19:41:30.731Z,99723.18
2019-01-16T19:44:07.286Z,99722.72
2019-01-16T19:46:53.812Z,99713.70
2019-01-16T19:49:25.552Z,99722.42
2019-01-16T19:52:11.080Z,99711.87
2019-01-16T19:54:50.057Z,99703.39
2019-01-16T19:57:29.053Z,99709.66
2019-01-16T20:00:08.458Z,99705.11
2019-01-16T20:02:47.990Z,99703.64
2019-01-16T20:05:18.267Z,99698.27
2019-01-16T20:07:49.996Z,99701.11
2019-01-16T20:10:29.432Z,99702.18
2019-01-16T20:13:05.507Z,99700.23
2019-01-16T20:15:52.716Z,99694.02
2019-01-16T20:18:41.493Z,99699.98
2019-01-16T20:21:14.618Z,99702.61
2019-01-16T20:23:44.918Z,99692.72
2019-01-16T20:26:33.329Z,99692.35
2019-01-16T20:29:03.746Z,99677.37
2019-01-16T20:31:34.013Z,99682.34
2019-01-16T20:34:12.802Z,99674.11
2019-01-16T20:36:59.220Z,99665.50
2019-01-16T20:39:29.607Z,99668.46
2019-01-16T20:42:08.590Z,99662.84
2019-01-16T20:44:53.690Z,99668.46
2019-01-16T20:47:23.909Z,99665.34
2019-01-16T20:49:59.709Z,99660.70
2019-01-16T20:52:42.235Z,99661.88
2019-01-16T20:55:18.747Z,99667.02
2019-01-16T20:58:05.454Z,99673.67
2019-01-16T21:00:51.707Z,99670.56
2019-01-16T21:03:38.335Z,99678.23
2019-01-16T21:06:21.131Z,99680.09
2019-01-16T21:08:54.272Z,99682.33
2019-01-16T21:11:24.561Z,99688.34
2019-01-16T21:13:54.877Z,99690.84
2019-01-16T21:16:25.015Z,99690.97
2019-01-16T21:19:07.552Z,99690.09
2019-01-16T21:21:46.517Z,99689.39
2019-01-16T21:24:22.831Z,99698.17
2019-01-16T21:26:52.981Z,99682.05
2019-01-16T21:29:26.034Z,99684.34
2019-01-16T21:32:05.545Z,99686.31
2019-01-16T21:34:35.968Z,99681.97
2019-01-16T21:37:06.386Z,99686.44
2019-01-16T21:39:51.797Z,99669.55
2019-01-16T21:42:27.679Z,99672.84
2019-01-16T21:45:10.017Z,99678.63
2019-01-16T21:47:42.867Z,99681.26
2019-01-16T21:50:25.353Z,99670.86
2019-01-16T21:53:10.594Z,99676.83
2019-01-16T21:55:43.687Z,99669.20
2019-01-16T21:58:22.966Z,99672.66
2019-01-16T22:00:53.252Z,99666.73
2019-01-16T22:03:25.739Z,99669.38
2019-01-16T22:06:01.325Z,99665.95
2019-01-16T22:08:31.487Z,99666.39
2019-01-16T22:11:10.594Z,99668.66
2019-01-16T22:13:43.348Z,99671.70
2019-01-16T22:16:29.602Z,99669.98
2019-01-16T22:19:14.496Z,99677.80
2019-01-16T22:21:53.810Z,99675.12
2019-01-16T22:24:32.870Z,99682.17
2019-01-16T22:27:19.533Z,99676.69
2019-01-16T22:29:52.182Z,99668.80
2019-01-16T22:32:25.255Z,99675.78
2019-01-16T22:34:55.313Z,99660.14
2019-01-16T22:37:25.381Z,99663.17
2019-01-16T22:39:57.897Z,99672.17
2019-01-16T22:42:28.049Z,99667.48
2019-01-16T22:44:58.107Z,99672.80
2019-01-16T22:47:44.807Z,99666.21
2019-01-16T22:50:20.711Z,99656.86
2019-01-16T22:52:53.331Z,99657.70
2019-01-16T22:55:38.125Z,99645.56
2019-01-16T22:58:11.439Z,99656.86
2019-01-16T23:00:55.165Z,99651.67
2019-01-16T23:03:31.271Z,99651.24
2019-01-16T23:06:07.522Z,99644.51
2019-01-16T23:08:37.689Z,99647.84
2019-01-16T23:11:07.800Z,99644.51
2019-01-16T23:13:43.566Z,99637.92
2019-01-16T23:16:28.445Z,99632.86
2019-01-16T23:18:59.784Z,99632.73
2019-01-16T23:21:55.512Z,99643.27
2019-01-16T23:24:25.684Z,99638.80
2019-01-16T23:27:01.547Z,99622.81
2019-01-16T23:29:50.453Z,99633.11
2019-01-16T23:32:19.659Z,99635.84
2019-01-16T23:35:05.577Z,99635.40
2019-01-16T23:37:50.661Z,99633.73
2019-01-16T23:40:23.786Z,99637.55
2019-01-16T23:42:53.953Z,99628.08
2019-01-16T23:45:32.813Z,99634.09
2019-01-16T23:48:02.905Z,99632.84
2019-01-16T23:50:32.967Z,99631.17
2019-01-16T23:53:19.417Z,99631.87
2019-01-16T23:56:06.043Z,99626.30
2019-01-16T23:58:39.073Z,99631.56
